SLC weather

Salt Lake City International Airport
Salt Lake City, Utah, United States

Public forecast

Using degrees Fahrenheit for public forecast. Weather courtesy of forecast.io.

Current aviation weather report (METAR) for Salt Lake City International Airport

Retrieved 2020/08/05 18:54 UTC (18 minutes ago):

KSLC 051854Z 19008G15KT 10SM FEW100 BKN180 34/02 A2994 RMK AO2 SLP074 ACSL DSNT S T03390022

Aviation forecast (TAF) for Salt Lake City International Airport

Retrieved 2020/08/05 18:42 UTC (30 minutes ago):

TAF KSLC 051739Z 0518/0624 17010G18KT P6SM FEW150 FM052000 21011G18KT P6SM FEW150 FM060000 30010KT P6SM SCT120 FM060400 16009KT P6SM SKC